sensor_id;sensor_type;location;lat;lon;timestamp;temperature;humidity
5962;DHT22;3007;50.770;0.250;2023-05-14T00:02:19;10.50;99.90
5962;DHT22;3007;50.770;0.250;2023-05-14T00:04:47;10.40;99.90
5962;DHT22;3007;50.770;0.250;2023-05-14T00:07:14;10.40;99.90
5962;DHT22;3007;50.770;0.250;2023-05-14T00:09:41;10.40;99.90
5962;DHT22;3007;50.770;0.250;2023-05-14T00:12:08;10.40;99.90
5962;DHT22;3007;50.770;0.250;2023-05-14T00:14:35;10.40;99.90
5962;DHT22;3007;50.770;0.250;2023-05-14T00:17:02;10.40;99.90
5962;DHT22;3007;50.770;0.250;2023-05-14T00:19:29;10.50;99.90
5962;DHT22;3007;50.770;0.250;2023-05-14T00:21:57;10.50;99.90
5962;DHT22;3007;50.770;0.250;2023-05-14T00:24:24;10.60;99.90
5962;DHT22;3007;50.770;0.250;2023-05-14T00:26:51;10.70;99.90
5962;DHT22;3007;50.770;0.250;2023-05-14T00:29:18;10.70;99.90
5962;DHT22;3007;50.770;0.250;2023-05-14T00:31:44;10.80;99.90
5962;DHT22;3007;50.770;0.250;2023-05-14T00:34:11;10.90;99.90
5962;DHT22;3007;50.770;0.250;2023-05-14T00:36:38;10.90;99.90
5962;DHT22;3007;50.770;0.250;2023-05-14T00:39:07;10.90;99.90
5962;DHT22;3007;50.770;0.250;2023-05-14T00:41:33;10.90;99.90
5962;DHT22;3007;50.770;0.250;2023-05-14T00:44:00;10.90;99.90
5962;DHT22;3007;50.770;0.250;2023-05-14T00:46:28;10.90;99.90
5962;DHT22;3007;50.770;0.250;2023-05-14T00:48:55;11.00;99.90
5962;DHT22;3007;50.770;0.250;2023-05-14T00:51:22;11.00;99.90
5962;DHT22;3007;50.770;0.250;2023-05-14T00:53:50;10.90;99.90
5962;DHT22;3007;50.770;0.250;2023-05-14T00:56:18;10.90;99.90
5962;DHT22;3007;50.770;0.250;2023-05-14T00:58:45;10.90;99.90
5962;DHT22;3007;50.770;0.250;2023-05-14T01:01:12;10.90;99.90
5962;DHT22;3007;50.770;0.250;2023-05-14T01:03:41;10.90;99.90
5962;DHT22;3007;50.770;0.250;2023-05-14T01:06:16;10.90;99.90
5962;DHT22;3007;50.770;0.250;2023-05-14T01:08:52;10.90;99.90
5962;DHT22;3007;50.770;0.250;2023-05-14T01:11:27;10.90;99.90
5962;DHT22;3007;50.770;0.250;2023-05-14T01:14:00;10.90;99.90
5962;DHT22;3007;50.770;0.250;2023-05-14T01:16:31;10.90;99.90
5962;DHT22;3007;50.770;0.250;2023-05-14T01:18:59;10.90;99.90
5962;DHT22;3007;50.770;0.250;2023-05-14T01:21:36;10.90;99.90
5962;DHT22;3007;50.770;0.250;2023-05-14T01:24:03;10.90;99.90
5962;DHT22;3007;50.770;0.250;2023-05-14T01:26:30;11.00;99.90
5962;DHT22;3007;50.770;0.250;2023-05-14T01:29:02;10.90;99.90
5962;DHT22;3007;50.770;0.250;2023-05-14T01:31:30;10.90;99.90
5962;DHT22;3007;50.770;0.250;2023-05-14T01:34:00;11.00;99.90
5962;DHT22;3007;50.770;0.250;2023-05-14T01:36:28;10.90;99.90
5962;DHT22;3007;50.770;0.250;2023-05-14T01:38:59;11.00;99.90
5962;DHT22;3007;50.770;0.250;2023-05-14T01:41:26;11.00;99.90
5962;DHT22;3007;50.770;0.250;2023-05-14T01:43:56;11.00;99.90
5962;DHT22;3007;50.770;0.250;2023-05-14T01:46:22;11.00;99.90
5962;DHT22;3007;50.770;0.250;2023-05-14T01:48:50;11.00;99.90
5962;DHT22;3007;50.770;0.250;2023-05-14T01:51:16;11.00;99.90
5962;DHT22;3007;50.770;0.250;2023-05-14T01:53:43;11.00;99.90
5962;DHT22;3007;50.770;0.250;2023-05-14T01:56:12;11.00;99.90
5962;DHT22;3007;50.770;0.250;2023-05-14T01:58:39;11.00;99.90
5962;DHT22;3007;50.770;0.250;2023-05-14T02:01:05;11.00;99.90
5962;DHT22;3007;50.770;0.250;2023-05-14T02:03:32;11.00;99.90
5962;DHT22;3007;50.770;0.250;2023-05-14T02:05:59;11.00;99.90
5962;DHT22;3007;50.770;0.250;2023-05-14T02:08:26;11.00;99.90
5962;DHT22;3007;50.770;0.250;2023-05-14T02:10:53;11.00;99.90
5962;DHT22;3007;50.770;0.250;2023-05-14T02:13:21;11.00;99.90
5962;DHT22;3007;50.770;0.250;2023-05-14T02:15:48;11.00;99.90
5962;DHT22;3007;50.770;0.250;2023-05-14T02:18:15;11.00;99.90
5962;DHT22;3007;50.770;0.250;2023-05-14T02:20:42;10.90;99.90
5962;DHT22;3007;50.770;0.250;2023-05-14T02:23:09;10.90;99.90
5962;DHT22;3007;50.770;0.250;2023-05-14T02:25:36;10.90;99.90
5962;DHT22;3007;50.770;0.250;2023-05-14T02:28:03;10.90;99.90
5962;DHT22;3007;50.770;0.250;2023-05-14T02:30:32;10.80;99.90
5962;DHT22;3007;50.770;0.250;2023-05-14T02:32:59;10.80;99.90
5962;DHT22;3007;50.770;0.250;2023-05-14T02:35:26;10.90;99.90
5962;DHT22;3007;50.770;0.250;2023-05-14T02:37:52;10.90;99.90
5962;DHT22;3007;50.770;0.250;2023-05-14T02:40:19;10.90;99.90
5962;DHT22;3007;50.770;0.250;2023-05-14T02:42:46;10.80;99.90
5962;DHT22;3007;50.770;0.250;2023-05-14T02:45:13;10.80;99.90
5962;DHT22;3007;50.770;0.250;2023-05-14T02:47:42;10.80;99.90
5962;DHT22;3007;50.770;0.250;2023-05-14T02:50:09;10.80;99.90
5962;DHT22;3007;50.770;0.250;2023-05-14T02:52:36;10.80;99.90
5962;DHT22;3007;50.770;0.250;2023-05-14T02:55:03;10.80;99.90
5962;DHT22;3007;50.770;0.250;2023-05-14T02:57:30;10.80;99.90
5962;DHT22;3007;50.770;0.250;2023-05-14T02:59:57;10.80;99.90
5962;DHT22;3007;50.770;0.250;2023-05-14T03:02:24;10.70;99.90
5962;DHT22;3007;50.770;0.250;2023-05-14T03:04:52;10.70;99.90
5962;DHT22;3007;50.770;0.250;2023-05-14T03:07:22;10.70;99.90
5962;DHT22;3007;50.770;0.250;2023-05-14T03:09:49;10.70;99.90
5962;DHT22;3007;50.770;0.250;2023-05-14T03:12:16;10.70;99.90
5962;DHT22;3007;50.770;0.250;2023-05-14T03:14:43;10.70;99.90
5962;DHT22;3007;50.770;0.250;2023-05-14T03:17:10;10.70;99.90
5962;DHT22;3007;50.770;0.250;2023-05-14T03:19:36;10.70;99.90
5962;DHT22;3007;50.770;0.250;2023-05-14T03:22:05;10.70;99.90
5962;DHT22;3007;50.770;0.250;2023-05-14T03:24:31;10.70;99.90
5962;DHT22;3007;50.770;0.250;2023-05-14T03:26:58;10.70;99.90
5962;DHT22;3007;50.770;0.250;2023-05-14T03:29:25;10.60;99.90
5962;DHT22;3007;50.770;0.250;2023-05-14T03:31:52;10.60;99.90
5962;DHT22;3007;50.770;0.250;2023-05-14T03:34:19;10.70;99.90
5962;DHT22;3007;50.770;0.250;2023-05-14T03:36:46;10.60;99.90
5962;DHT22;3007;50.770;0.250;2023-05-14T03:39:14;10.60;99.90
5962;DHT22;3007;50.770;0.250;2023-05-14T03:41:44;10.60;99.90
5962;DHT22;3007;50.770;0.250;2023-05-14T03:44:11;10.60;99.90
5962;DHT22;3007;50.770;0.250;2023-05-14T03:46:37;10.60;99.90
5962;DHT22;3007;50.770;0.250;2023-05-14T03:49:05;10.60;99.90
5962;DHT22;3007;50.770;0.250;2023-05-14T03:51:32;10.60;99.90
5962;DHT22;3007;50.770;0.250;2023-05-14T03:53:59;10.60;99.90
5962;DHT22;3007;50.770;0.250;2023-05-14T03:56:27;10.60;99.90
5962;DHT22;3007;50.770;0.250;2023-05-14T03:58:54;10.50;99.90
5962;DHT22;3007;50.770;0.250;2023-05-14T04:01:21;10.60;99.90
5962;DHT22;3007;50.770;0.250;2023-05-14T04:03:48;10.60;99.90
5962;DHT22;3007;50.770;0.250;2023-05-14T04:06:15;10.60;99.90
5962;DHT22;3007;50.770;0.250;2023-05-14T04:08:42;10.60;99.90
5962;DHT22;3007;50.770;0.250;2023-05-14T04:11:08;10.60;99.90
5962;DHT22;3007;50.770;0.250;2023-05-14T04:13:37;10.60;99.90
5962;DHT22;3007;50.770;0.250;2023-05-14T04:16:04;10.60;99.90
5962;DHT22;3007;50.770;0.250;2023-05-14T04:18:31;10.60;99.90
5962;DHT22;3007;50.770;0.250;2023-05-14T04:20:59;10.60;99.90
5962;DHT22;3007;50.770;0.250;2023-05-14T04:23:26;10.60;99.90
5962;DHT22;3007;50.770;0.250;2023-05-14T04:25:53;10.60;99.90
5962;DHT22;3007;50.770;0.250;2023-05-14T04:28:20;10.60;99.90
5962;DHT22;3007;50.770;0.250;2023-05-14T04:30:48;10.60;99.90
5962;DHT22;3007;50.770;0.250;2023-05-14T04:33:16;10.60;99.90
5962;DHT22;3007;50.770;0.250;2023-05-14T04:35:43;10.60;99.90
5962;DHT22;3007;50.770;0.250;2023-05-14T04:38:10;10.60;99.90
5962;DHT22;3007;50.770;0.250;2023-05-14T04:40:38;10.50;99.90
5962;DHT22;3007;50.770;0.250;2023-05-14T04:43:05;10.50;99.90
5962;DHT22;3007;50.770;0.250;2023-05-14T04:45:33;10.50;99.90
5962;DHT22;3007;50.770;0.250;2023-05-14T04:48:01;10.50;99.90
5962;DHT22;3007;50.770;0.250;2023-05-14T04:50:29;10.50;99.90
5962;DHT22;3007;50.770;0.250;2023-05-14T04:52:56;10.40;99.90
5962;DHT22;3007;50.770;0.250;2023-05-14T04:55:23;10.40;99.90
5962;DHT22;3007;50.770;0.250;2023-05-14T04:57:50;10.40;99.90
5962;DHT22;3007;50.770;0.250;2023-05-14T05:00:17;10.40;99.90
5962;DHT22;3007;50.770;0.250;2023-05-14T05:02:46;10.40;99.90
5962;DHT22;3007;50.770;0.250;2023-05-14T05:05:14;10.40;99.90
5962;DHT22;3007;50.770;0.250;2023-05-14T05:07:41;10.40;99.90
5962;DHT22;3007;50.770;0.250;2023-05-14T05:10:08;10.40;99.90
5962;DHT22;3007;50.770;0.250;2023-05-14T05:12:35;10.50;99.90
5962;DHT22;3007;50.770;0.250;2023-05-14T05:15:02;10.50;99.90
5962;DHT22;3007;50.770;0.250;2023-05-14T05:17:29;10.50;99.90
5962;DHT22;3007;50.770;0.250;2023-05-14T05:19:56;10.50;99.90
5962;DHT22;3007;50.770;0.250;2023-05-14T05:22:24;10.50;99.90
5962;DHT22;3007;50.770;0.250;2023-05-14T05:24:51;10.50;99.90
5962;DHT22;3007;50.770;0.250;2023-05-14T05:27:18;10.50;99.90
5962;DHT22;3007;50.770;0.250;2023-05-14T05:29:46;10.50;99.90
5962;DHT22;3007;50.770;0.250;2023-05-14T05:32:13;10.50;99.90
5962;DHT22;3007;50.770;0.250;2023-05-14T05:34:40;10.50;99.90
5962;DHT22;3007;50.770;0.250;2023-05-14T05:37:07;10.50;99.90
5962;DHT22;3007;50.770;0.250;2023-05-14T05:39:38;10.50;99.90
5962;DHT22;3007;50.770;0.250;2023-05-14T05:42:06;10.50;99.90
5962;DHT22;3007;50.770;0.250;2023-05-14T05:44:33;10.50;99.90
5962;DHT22;3007;50.770;0.250;2023-05-14T05:47:00;10.60;99.90
5962;DHT22;3007;50.770;0.250;2023-05-14T05:49:26;10.60;99.90
5962;DHT22;3007;50.770;0.250;2023-05-14T05:51:53;10.60;99.90
5962;DHT22;3007;50.770;0.250;2023-05-14T05:54:21;10.60;99.90
5962;DHT22;3007;50.770;0.250;2023-05-14T05:56:49;10.60;99.90
5962;DHT22;3007;50.770;0.250;2023-05-14T05:59:16;10.60;99.90
5962;DHT22;3007;50.770;0.250;2023-05-14T06:01:43;10.60;99.90
5962;DHT22;3007;50.770;0.250;2023-05-14T06:04:10;10.60;99.90
5962;DHT22;3007;50.770;0.250;2023-05-14T06:06:37;10.60;99.90
5962;DHT22;3007;50.770;0.250;2023-05-14T06:09:04;10.60;99.90
5962;DHT22;3007;50.770;0.250;2023-05-14T06:11:31;10.70;99.90
5962;DHT22;3007;50.770;0.250;2023-05-14T06:13:59;10.60;99.90
5962;DHT22;3007;50.770;0.250;2023-05-14T06:16:26;10.60;99.90
5962;DHT22;3007;50.770;0.250;2023-05-14T06:18:53;10.70;99.90
5962;DHT22;3007;50.770;0.250;2023-05-14T06:21:20;10.70;99.90
5962;DHT22;3007;50.770;0.250;2023-05-14T06:23:47;10.70;99.90
5962;DHT22;3007;50.770;0.250;2023-05-14T06:26:14;10.80;99.90
5962;DHT22;3007;50.770;0.250;2023-05-14T06:28:41;10.80;99.90
5962;DHT22;3007;50.770;0.250;2023-05-14T06:31:09;10.90;99.90
5962;DHT22;3007;50.770;0.250;2023-05-14T06:33:36;11.00;99.90
5962;DHT22;3007;50.770;0.250;2023-05-14T06:36:05;11.00;99.90
5962;DHT22;3007;50.770;0.250;2023-05-14T06:38:32;11.00;99.90
5962;DHT22;3007;50.770;0.250;2023-05-14T06:40:59;11.10;99.90
5962;DHT22;3007;50.770;0.250;2023-05-14T06:43:26;11.20;99.90
5962;DHT22;3007;50.770;0.250;2023-05-14T06:45:53;11.20;99.90
5962;DHT22;3007;50.770;0.250;2023-05-14T06:48:21;11.20;99.90
5962;DHT22;3007;50.770;0.250;2023-05-14T06:50:48;11.20;99.90
5962;DHT22;3007;50.770;0.250;2023-05-14T06:53:15;11.20;99.90
5962;DHT22;3007;50.770;0.250;2023-05-14T06:55:42;11.20;99.90
5962;DHT22;3007;50.770;0.250;2023-05-14T06:58:09;11.20;99.90
5962;DHT22;3007;50.770;0.250;2023-05-14T07:00:36;11.20;99.90
5962;DHT22;3007;50.770;0.250;2023-05-14T07:03:03;11.20;99.90
5962;DHT22;3007;50.770;0.250;2023-05-14T07:05:31;11.20;99.90
5962;DHT22;3007;50.770;0.250;2023-05-14T07:07:58;11.30;99.90
5962;DHT22;3007;50.770;0.250;2023-05-14T07:10:25;11.30;99.90
5962;DHT22;3007;50.770;0.250;2023-05-14T07:12:52;11.40;99.90
5962;DHT22;3007;50.770;0.250;2023-05-14T07:15:19;11.50;99.90
5962;DHT22;3007;50.770;0.250;2023-05-14T07:17:46;11.50;99.90
5962;DHT22;3007;50.770;0.250;2023-05-14T07:20:13;11.60;99.90
5962;DHT22;3007;50.770;0.250;2023-05-14T07:22:41;11.80;99.90
5962;DHT22;3007;50.770;0.250;2023-05-14T07:25:08;11.90;99.90
5962;DHT22;3007;50.770;0.250;2023-05-14T07:27:35;11.90;99.90
5962;DHT22;3007;50.770;0.250;2023-05-14T07:30:02;11.90;99.90
5962;DHT22;3007;50.770;0.250;2023-05-14T07:32:32;11.90;99.90
5962;DHT22;3007;50.770;0.250;2023-05-14T07:35:00;11.80;99.90
5962;DHT22;3007;50.770;0.250;2023-05-14T07:37:27;11.90;99.90
5962;DHT22;3007;50.770;0.250;2023-05-14T07:39:55;12.00;99.90
5962;DHT22;3007;50.770;0.250;2023-05-14T07:42:22;12.10;99.90
5962;DHT22;3007;50.770;0.250;2023-05-14T07:44:49;12.20;99.90
5962;DHT22;3007;50.770;0.250;2023-05-14T07:47:16;12.40;99.90
5962;DHT22;3007;50.770;0.250;2023-05-14T07:49:43;12.60;99.90
5962;DHT22;3007;50.770;0.250;2023-05-14T07:52:10;12.80;99.90
5962;DHT22;3007;50.770;0.250;2023-05-14T07:54:37;12.80;99.90
5962;DHT22;3007;50.770;0.250;2023-05-14T07:57:05;13.00;99.90
5962;DHT22;3007;50.770;0.250;2023-05-14T07:59:32;13.20;99.90
5962;DHT22;3007;50.770;0.250;2023-05-14T08:01:59;13.30;99.90
5962;DHT22;3007;50.770;0.250;2023-05-14T08:04:26;13.30;99.90
5962;DHT22;3007;50.770;0.250;2023-05-14T08:06:53;13.40;99.90
5962;DHT22;3007;50.770;0.250;2023-05-14T08:09:20;13.60;99.90
5962;DHT22;3007;50.770;0.250;2023-05-14T08:11:47;13.80;99.90
5962;DHT22;3007;50.770;0.250;2023-05-14T08:14:15;14.00;99.90
5962;DHT22;3007;50.770;0.250;2023-05-14T08:16:42;14.10;99.90
5962;DHT22;3007;50.770;0.250;2023-05-14T08:19:11;14.20;99.90
5962;DHT22;3007;50.770;0.250;2023-05-14T08:21:38;14.30;99.90
5962;DHT22;3007;50.770;0.250;2023-05-14T08:24:05;14.60;99.90
5962;DHT22;3007;50.770;0.250;2023-05-14T08:26:32;14.60;99.90
5962;DHT22;3007;50.770;0.250;2023-05-14T08:28:59;14.70;99.90
5962;DHT22;3007;50.770;0.250;2023-05-14T08:31:27;14.90;99.90
5962;DHT22;3007;50.770;0.250;2023-05-14T08:33:54;15.20;99.90
5962;DHT22;3007;50.770;0.250;2023-05-14T08:36:20;15.30;99.90
5962;DHT22;3007;50.770;0.250;2023-05-14T08:38:47;15.50;99.90
5962;DHT22;3007;50.770;0.250;2023-05-14T08:41:15;15.80;99.90
5962;DHT22;3007;50.770;0.250;2023-05-14T08:43:44;16.40;99.90
5962;DHT22;3007;50.770;0.250;2023-05-14T08:46:16;16.70;99.90
5962;DHT22;3007;50.770;0.250;2023-05-14T08:48:47;17.00;99.90
5962;DHT22;3007;50.770;0.250;2023-05-14T08:51:17;17.20;99.90
5962;DHT22;3007;50.770;0.250;2023-05-14T08:53:46;17.30;99.90
5962;DHT22;3007;50.770;0.250;2023-05-14T08:56:15;17.30;99.90
5962;DHT22;3007;50.770;0.250;2023-05-14T08:58:43;17.30;99.90
5962;DHT22;3007;50.770;0.250;2023-05-14T09:01:10;17.30;99.90
5962;DHT22;3007;50.770;0.250;2023-05-14T09:03:37;17.30;99.90
5962;DHT22;3007;50.770;0.250;2023-05-14T09:06:06;17.30;99.90
5962;DHT22;3007;50.770;0.250;2023-05-14T09:08:34;17.40;99.90
5962;DHT22;3007;50.770;0.250;2023-05-14T09:11:03;17.30;99.90
5962;DHT22;3007;50.770;0.250;2023-05-14T09:13:30;17.10;99.90
5962;DHT22;3007;50.770;0.250;2023-05-14T09:15:57;17.00;99.90
5962;DHT22;3007;50.770;0.250;2023-05-14T09:18:25;16.80;99.90
5962;DHT22;3007;50.770;0.250;2023-05-14T09:20:52;16.70;99.90
5962;DHT22;3007;50.770;0.250;2023-05-14T09:23:20;16.60;99.90
5962;DHT22;3007;50.770;0.250;2023-05-14T09:25:47;16.50;99.90
5962;DHT22;3007;50.770;0.250;2023-05-14T09:28:16;16.50;99.90
5962;DHT22;3007;50.770;0.250;2023-05-14T09:30:46;16.40;99.90
5962;DHT22;3007;50.770;0.250;2023-05-14T09:33:24;16.40;99.90
5962;DHT22;3007;50.770;0.250;2023-05-14T09:35:55;16.30;99.90
5962;DHT22;3007;50.770;0.250;2023-05-14T09:38:27;16.30;99.90
5962;DHT22;3007;50.770;0.250;2023-05-14T09:40:54;16.30;99.90
5962;DHT22;3007;50.770;0.250;2023-05-14T09:43:21;16.30;99.90
5962;DHT22;3007;50.770;0.250;2023-05-14T09:45:48;16.30;99.90
5962;DHT22;3007;50.770;0.250;2023-05-14T09:48:15;16.40;99.90
5962;DHT22;3007;50.770;0.250;2023-05-14T09:50:42;16.50;99.90
5962;DHT22;3007;50.770;0.250;2023-05-14T09:53:10;16.40;99.90
5962;DHT22;3007;50.770;0.250;2023-05-14T09:55:38;16.30;99.90
5962;DHT22;3007;50.770;0.250;2023-05-14T09:58:06;16.40;99.90
5962;DHT22;3007;50.770;0.250;2023-05-14T10:00:33;16.40;99.90
5962;DHT22;3007;50.770;0.250;2023-05-14T10:03:04;16.50;99.90
5962;DHT22;3007;50.770;0.250;2023-05-14T10:05:32;16.50;99.90
5962;DHT22;3007;50.770;0.250;2023-05-14T10:08:04;16.50;99.90
5962;DHT22;3007;50.770;0.250;2023-05-14T10:10:32;16.40;99.90
5962;DHT22;3007;50.770;0.250;2023-05-14T10:13:02;16.50;99.90
5962;DHT22;3007;50.770;0.250;2023-05-14T10:15:35;16.70;99.90
5962;DHT22;3007;50.770;0.250;2023-05-14T10:18:07;16.90;99.90
5962;DHT22;3007;50.770;0.250;2023-05-14T10:20:37;17.10;99.90
5962;DHT22;3007;50.770;0.250;2023-05-14T10:23:05;17.20;99.90
5962;DHT22;3007;50.770;0.250;2023-05-14T10:25:33;17.30;99.90
5962;DHT22;3007;50.770;0.250;2023-05-14T10:28:01;17.40;99.90
5962;DHT22;3007;50.770;0.250;2023-05-14T10:30:28;17.50;99.90
5962;DHT22;3007;50.770;0.250;2023-05-14T10:33:08;17.60;99.90
5962;DHT22;3007;50.770;0.250;2023-05-14T10:35:50;17.60;99.90
5962;DHT22;3007;50.770;0.250;2023-05-14T10:38:21;17.60;99.90
5962;DHT22;3007;50.770;0.250;2023-05-14T10:40:49;17.60;99.90
5962;DHT22;3007;50.770;0.250;2023-05-14T10:43:18;17.60;99.90
5962;DHT22;3007;50.770;0.250;2023-05-14T10:45:45;17.60;99.90
5962;DHT22;3007;50.770;0.250;2023-05-14T10:48:12;17.60;99.90
5962;DHT22;3007;50.770;0.250;2023-05-14T10:50:41;17.60;99.90
5962;DHT22;3007;50.770;0.250;2023-05-14T10:53:10;17.70;99.90
5962;DHT22;3007;50.770;0.250;2023-05-14T10:55:38;17.80;99.90
5962;DHT22;3007;50.770;0.250;2023-05-14T10:58:05;17.80;99.90
5962;DHT22;3007;50.770;0.250;2023-05-14T11:00:34;17.90;99.90
5962;DHT22;3007;50.770;0.250;2023-05-14T11:03:03;18.00;99.90
5962;DHT22;3007;50.770;0.250;2023-05-14T11:05:31;18.20;99.90
5962;DHT22;3007;50.770;0.250;2023-05-14T11:08:02;18.30;99.90
5962;DHT22;3007;50.770;0.250;2023-05-14T11:10:29;18.30;99.90
5962;DHT22;3007;50.770;0.250;2023-05-14T11:12:56;18.40;99.90
5962;DHT22;3007;50.770;0.250;2023-05-14T11:15:24;18.30;99.90
5962;DHT22;3007;50.770;0.250;2023-05-14T11:17:54;18.20;99.90
5962;DHT22;3007;50.770;0.250;2023-05-14T11:20:21;18.00;99.90
5962;DHT22;3007;50.770;0.250;2023-05-14T11:22:48;17.80;99.90
5962;DHT22;3007;50.770;0.250;2023-05-14T11:25:16;17.60;99.90
5962;DHT22;3007;50.770;0.250;2023-05-14T11:27:44;17.30;99.90
5962;DHT22;3007;50.770;0.250;2023-05-14T11:30:13;17.00;99.90
5962;DHT22;3007;50.770;0.250;2023-05-14T11:32:40;16.80;99.90
5962;DHT22;3007;50.770;0.250;2023-05-14T11:35:09;16.70;99.90
5962;DHT22;3007;50.770;0.250;2023-05-14T11:37:36;16.50;99.90
5962;DHT22;3007;50.770;0.250;2023-05-14T11:40:06;16.40;99.90
5962;DHT22;3007;50.770;0.250;2023-05-14T11:42:35;16.20;99.90
5962;DHT22;3007;50.770;0.250;2023-05-14T11:45:02;16.00;99.90
5962;DHT22;3007;50.770;0.250;2023-05-14T11:47:30;16.00;99.90
5962;DHT22;3007;50.770;0.250;2023-05-14T11:49:58;15.90;99.90
5962;DHT22;3007;50.770;0.250;2023-05-14T11:52:27;15.80;99.90
5962;DHT22;3007;50.770;0.250;2023-05-14T11:54:54;15.70;99.90
5962;DHT22;3007;50.770;0.250;2023-05-14T11:57:21;15.60;99.90
5962;DHT22;3007;50.770;0.250;2023-05-14T11:59:53;15.50;99.90
5962;DHT22;3007;50.770;0.250;2023-05-14T12:02:21;15.50;99.90
5962;DHT22;3007;50.770;0.250;2023-05-14T12:04:49;15.40;99.90
5962;DHT22;3007;50.770;0.250;2023-05-14T12:07:17;15.30;99.90
5962;DHT22;3007;50.770;0.250;2023-05-14T12:09:47;15.20;99.90
5962;DHT22;3007;50.770;0.250;2023-05-14T12:12:16;15.10;99.90
5962;DHT22;3007;50.770;0.250;2023-05-14T12:14:43;15.00;99.90
5962;DHT22;3007;50.770;0.250;2023-05-14T12:17:12;15.00;99.90
5962;DHT22;3007;50.770;0.250;2023-05-14T12:19:40;14.90;99.90
5962;DHT22;3007;50.770;0.250;2023-05-14T12:22:08;14.80;99.90
5962;DHT22;3007;50.770;0.250;2023-05-14T12:24:35;14.80;99.90
5962;DHT22;3007;50.770;0.250;2023-05-14T12:27:06;14.80;99.90
5962;DHT22;3007;50.770;0.250;2023-05-14T12:29:37;14.80;99.90
5962;DHT22;3007;50.770;0.250;2023-05-14T12:32:07;14.70;99.90
5962;DHT22;3007;50.770;0.250;2023-05-14T12:34:36;14.70;99.90
5962;DHT22;3007;50.770;0.250;2023-05-14T12:37:03;14.70;99.90
5962;DHT22;3007;50.770;0.250;2023-05-14T12:39:32;14.70;99.90
5962;DHT22;3007;50.770;0.250;2023-05-14T12:42:00;14.60;99.90
5962;DHT22;3007;50.770;0.250;2023-05-14T12:44:28;14.50;99.90
5962;DHT22;3007;50.770;0.250;2023-05-14T12:46:55;14.50;99.90
5962;DHT22;3007;50.770;0.250;2023-05-14T12:49:22;14.50;99.90
5962;DHT22;3007;50.770;0.250;2023-05-14T12:51:49;14.50;99.90
5962;DHT22;3007;50.770;0.250;2023-05-14T12:54:16;14.50;99.90
5962;DHT22;3007;50.770;0.250;2023-05-14T12:56:42;14.50;99.90
5962;DHT22;3007;50.770;0.250;2023-05-14T12:59:10;14.40;99.90
5962;DHT22;3007;50.770;0.250;2023-05-14T13:01:39;14.50;99.90
5962;DHT22;3007;50.770;0.250;2023-05-14T13:04:06;14.50;99.90
5962;DHT22;3007;50.770;0.250;2023-05-14T13:06:36;14.30;99.90
5962;DHT22;3007;50.770;0.250;2023-05-14T13:09:03;14.30;99.90
5962;DHT22;3007;50.770;0.250;2023-05-14T13:11:30;14.30;99.90
5962;DHT22;3007;50.770;0.250;2023-05-14T13:13:57;14.30;99.90
5962;DHT22;3007;50.770;0.250;2023-05-14T13:16:24;14.30;99.90
5962;DHT22;3007;50.770;0.250;2023-05-14T13:18:53;14.40;99.90
5962;DHT22;3007;50.770;0.250;2023-05-14T13:21:20;14.40;99.90
5962;DHT22;3007;50.770;0.250;2023-05-14T13:23:47;14.30;99.90
5962;DHT22;3007;50.770;0.250;2023-05-14T13:26:14;14.30;99.90
5962;DHT22;3007;50.770;0.250;2023-05-14T13:28:41;14.30;99.90
5962;DHT22;3007;50.770;0.250;2023-05-14T13:31:10;14.30;99.90
5962;DHT22;3007;50.770;0.250;2023-05-14T13:33:40;14.20;99.90
5962;DHT22;3007;50.770;0.250;2023-05-14T13:36:10;14.10;99.90
5962;DHT22;3007;50.770;0.250;2023-05-14T13:38:37;14.10;99.90
5962;DHT22;3007;50.770;0.250;2023-05-14T13:41:04;14.00;99.90
5962;DHT22;3007;50.770;0.250;2023-05-14T13:43:32;14.00;99.90
5962;DHT22;3007;50.770;0.250;2023-05-14T13:45:59;14.00;99.90
5962;DHT22;3007;50.770;0.250;2023-05-14T13:48:26;14.00;99.90
5962;DHT22;3007;50.770;0.250;2023-05-14T13:50:53;14.00;99.90
5962;DHT22;3007;50.770;0.250;2023-05-14T13:53:23;14.00;99.90
5962;DHT22;3007;50.770;0.250;2023-05-14T13:55:50;14.00;99.90
5962;DHT22;3007;50.770;0.250;2023-05-14T13:58:21;14.00;99.90
5962;DHT22;3007;50.770;0.250;2023-05-14T14:00:47;14.00;99.90
5962;DHT22;3007;50.770;0.250;2023-05-14T14:03:14;14.00;99.90
5962;DHT22;3007;50.770;0.250;2023-05-14T14:05:41;14.00;99.90
5962;DHT22;3007;50.770;0.250;2023-05-14T14:08:08;14.10;99.90
5962;DHT22;3007;50.770;0.250;2023-05-14T14:10:36;14.10;99.90
5962;DHT22;3007;50.770;0.250;2023-05-14T14:13:05;14.20;99.90
5962;DHT22;3007;50.770;0.250;2023-05-14T14:15:32;14.20;99.90
5962;DHT22;3007;50.770;0.250;2023-05-14T14:17:59;14.20;99.90
5962;DHT22;3007;50.770;0.250;2023-05-14T14:20:26;14.20;99.90
5962;DHT22;3007;50.770;0.250;2023-05-14T14:22:53;14.20;99.90
5962;DHT22;3007;50.770;0.250;2023-05-14T14:25:20;14.20;99.90
5962;DHT22;3007;50.770;0.250;2023-05-14T14:27:49;14.20;99.90
5962;DHT22;3007;50.770;0.250;2023-05-14T14:30:16;14.10;99.90
5962;DHT22;3007;50.770;0.250;2023-05-14T14:32:43;14.10;99.90
5962;DHT22;3007;50.770;0.250;2023-05-14T14:35:11;14.10;99.90
5962;DHT22;3007;50.770;0.250;2023-05-14T14:37:39;14.10;99.90
5962;DHT22;3007;50.770;0.250;2023-05-14T14:40:07;14.10;99.90
5962;DHT22;3007;50.770;0.250;2023-05-14T14:42:34;14.10;99.90
5962;DHT22;3007;50.770;0.250;2023-05-14T14:45:03;14.10;99.90
5962;DHT22;3007;50.770;0.250;2023-05-14T14:47:30;14.10;99.90
5962;DHT22;3007;50.770;0.250;2023-05-14T14:49:57;14.10;99.90
5962;DHT22;3007;50.770;0.250;2023-05-14T14:52:25;14.10;99.90
5962;DHT22;3007;50.770;0.250;2023-05-14T14:54:52;14.20;99.90
5962;DHT22;3007;50.770;0.250;2023-05-14T14:57:19;14.20;99.90
5962;DHT22;3007;50.770;0.250;2023-05-14T14:59:46;14.20;99.90
5962;DHT22;3007;50.770;0.250;2023-05-14T15:02:15;14.20;99.90
5962;DHT22;3007;50.770;0.250;2023-05-14T15:04:42;14.20;99.90
5962;DHT22;3007;50.770;0.250;2023-05-14T15:07:09;14.20;99.90
5962;DHT22;3007;50.770;0.250;2023-05-14T15:09:35;14.20;99.90
5962;DHT22;3007;50.770;0.250;2023-05-14T15:12:03;14.20;99.90
5962;DHT22;3007;50.770;0.250;2023-05-14T15:14:31;14.20;99.90
5962;DHT22;3007;50.770;0.250;2023-05-14T15:16:57;14.10;99.90
5962;DHT22;3007;50.770;0.250;2023-05-14T15:19:26;14.20;99.90
5962;DHT22;3007;50.770;0.250;2023-05-14T15:21:53;14.20;99.90
5962;DHT22;3007;50.770;0.250;2023-05-14T15:24:19;14.20;99.90
5962;DHT22;3007;50.770;0.250;2023-05-14T15:26:48;14.20;99.90
5962;DHT22;3007;50.770;0.250;2023-05-14T15:29:15;14.20;99.90
5962;DHT22;3007;50.770;0.250;2023-05-14T15:31:43;14.30;99.90
5962;DHT22;3007;50.770;0.250;2023-05-14T15:34:10;14.30;99.90
5962;DHT22;3007;50.770;0.250;2023-05-14T15:36:39;14.20;99.90
5962;DHT22;3007;50.770;0.250;2023-05-14T15:39:06;14.20;99.90
5962;DHT22;3007;50.770;0.250;2023-05-14T15:41:34;14.10;99.90
5962;DHT22;3007;50.770;0.250;2023-05-14T15:44:01;14.10;99.90
5962;DHT22;3007;50.770;0.250;2023-05-14T15:46:28;14.10;99.90
5962;DHT22;3007;50.770;0.250;2023-05-14T15:48:56;14.00;99.90
5962;DHT22;3007;50.770;0.250;2023-05-14T15:51:23;14.00;99.90
5962;DHT22;3007;50.770;0.250;2023-05-14T15:53:53;14.00;99.90
5962;DHT22;3007;50.770;0.250;2023-05-14T15:56:20;14.00;99.90
5962;DHT22;3007;50.770;0.250;2023-05-14T15:58:47;14.00;99.90
5962;DHT22;3007;50.770;0.250;2023-05-14T16:01:14;14.00;99.90
5962;DHT22;3007;50.770;0.250;2023-05-14T16:03:41;13.90;99.90
5962;DHT22;3007;50.770;0.250;2023-05-14T16:06:08;14.00;99.90